sensor_id;sensor_type;location;lat;lon;timestamp;P1;durP1;ratioP1;P2;durP2;ratioP2
62338;SDS011;48368;53.406;6.214;2024-03-02T00:00:38;4.65;;;2.40;;
62338;SDS011;48368;53.406;6.214;2024-03-02T00:03:06;4.97;;;2.88;;
62338;SDS011;48368;53.406;6.214;2024-03-02T00:05:40;7.15;;;3.17;;
62338;SDS011;48368;53.406;6.214;2024-03-02T00:08:05;10.07;;;2.97;;
62338;SDS011;48368;53.406;6.214;2024-03-02T00:10:36;5.57;;;3.20;;
62338;SDS011;48368;53.406;6.214;2024-03-02T00:13:05;5.77;;;3.10;;
62338;SDS011;48368;53.406;6.214;2024-03-02T00:18:16;7.70;;;3.47;;
62338;SDS011;48368;53.406;6.214;2024-03-02T00:20:44;5.78;;;3.17;;
62338;SDS011;48368;53.406;6.214;2024-03-02T00:23:12;5.18;;;3.22;;
62338;SDS011;48368;53.406;6.214;2024-03-02T00:25:53;6.15;;;3.60;;
62338;SDS011;48368;53.406;6.214;2024-03-02T00:30:59;6.68;;;3.42;;
62338;SDS011;48368;53.406;6.214;2024-03-02T00:33:32;6.40;;;3.40;;
62338;SDS011;48368;53.406;6.214;2024-03-02T00:36:00;6.05;;;3.63;;
62338;SDS011;48368;53.406;6.214;2024-03-02T00:38:28;6.70;;;3.88;;
62338;SDS011;48368;53.406;6.214;2024-03-02T00:41:07;5.40;;;3.00;;
62338;SDS011;48368;53.406;6.214;2024-03-02T00:46:20;5.82;;;3.50;;
62338;SDS011;48368;53.406;6.214;2024-03-02T00:48:58;6.57;;;3.65;;
62338;SDS011;48368;53.406;6.214;2024-03-02T00:51:26;6.40;;;4.15;;
62338;SDS011;48368;53.406;6.214;2024-03-02T00:53:53;6.35;;;4.03;;
62338;SDS011;48368;53.406;6.214;2024-03-02T00:56:23;5.75;;;3.72;;
62338;SDS011;48368;53.406;6.214;2024-03-02T00:58:49;6.90;;;3.97;;
62338;SDS011;48368;53.406;6.214;2024-03-02T01:01:15;6.82;;;4.43;;
62338;SDS011;48368;53.406;6.214;2024-03-02T01:03:42;6.75;;;3.80;;
62338;SDS011;48368;53.406;6.214;2024-03-02T01:06:08;6.53;;;3.88;;
62338;SDS011;48368;53.406;6.214;2024-03-02T01:08:34;7.95;;;4.47;;
62338;SDS011;48368;53.406;6.214;2024-03-02T01:11:01;5.63;;;3.80;;
62338;SDS011;48368;53.406;6.214;2024-03-02T01:13:27;7.93;;;4.07;;
62338;SDS011;48368;53.406;6.214;2024-03-02T01:15:53;7.10;;;3.80;;
62338;SDS011;48368;53.406;6.214;2024-03-02T01:18:19;6.68;;;3.75;;
62338;SDS011;48368;53.406;6.214;2024-03-02T01:20:44;7.45;;;3.35;;
62338;SDS011;48368;53.406;6.214;2024-03-02T01:23:10;5.63;;;3.30;;
62338;SDS011;48368;53.406;6.214;2024-03-02T01:25:36;7.85;;;4.00;;
62338;SDS011;48368;53.406;6.214;2024-03-02T01:28:02;8.75;;;4.10;;
62338;SDS011;48368;53.406;6.214;2024-03-02T01:30:32;5.60;;;3.20;;
62338;SDS011;48368;53.406;6.214;2024-03-02T01:32:57;6.63;;;3.92;;
62338;SDS011;48368;53.406;6.214;2024-03-02T01:35:25;6.78;;;3.97;;
62338;SDS011;48368;53.406;6.214;2024-03-02T01:37:52;7.75;;;3.42;;
62338;SDS011;48368;53.406;6.214;2024-03-02T01:40:18;5.28;;;3.60;;
62338;SDS011;48368;53.406;6.214;2024-03-02T01:42:44;6.95;;;3.53;;
62338;SDS011;48368;53.406;6.214;2024-03-02T01:45:10;5.18;;;3.15;;
62338;SDS011;48368;53.406;6.214;2024-03-02T01:47:35;6.97;;;3.22;;
62338;SDS011;48368;53.406;6.214;2024-03-02T01:50:01;5.00;;;3.17;;
62338;SDS011;48368;53.406;6.214;2024-03-02T01:52:27;5.82;;;3.00;;
62338;SDS011;48368;53.406;6.214;2024-03-02T01:54:54;6.32;;;3.55;;
62338;SDS011;48368;53.406;6.214;2024-03-02T01:57:21;8.02;;;3.88;;
62338;SDS011;48368;53.406;6.214;2024-03-02T01:59:47;6.35;;;3.55;;
62338;SDS011;48368;53.406;6.214;2024-03-02T02:02:13;7.97;;;3.53;;
62338;SDS011;48368;53.406;6.214;2024-03-02T02:04:40;7.13;;;3.78;;
62338;SDS011;48368;53.406;6.214;2024-03-02T02:07:06;5.72;;;2.88;;
62338;SDS011;48368;53.406;6.214;2024-03-02T02:09:32;6.05;;;3.33;;
62338;SDS011;48368;53.406;6.214;2024-03-02T02:11:58;6.22;;;3.83;;
62338;SDS011;48368;53.406;6.214;2024-03-02T02:14:24;6.85;;;3.15;;
62338;SDS011;48368;53.406;6.214;2024-03-02T02:16:51;5.57;;;3.00;;
62338;SDS011;48368;53.406;6.214;2024-03-02T02:19:17;7.20;;;3.10;;
62338;SDS011;48368;53.406;6.214;2024-03-02T02:21:43;5.80;;;3.70;;
62338;SDS011;48368;53.406;6.214;2024-03-02T02:24:09;6.18;;;2.88;;
62338;SDS011;48368;53.406;6.214;2024-03-02T02:26:35;5.68;;;3.13;;
62338;SDS011;48368;53.406;6.214;2024-03-02T02:29:01;6.72;;;3.30;;
62338;SDS011;48368;53.406;6.214;2024-03-02T02:31:27;5.60;;;2.80;;
62338;SDS011;48368;53.406;6.214;2024-03-02T02:34:10;6.38;;;3.10;;
62338;SDS011;48368;53.406;6.214;2024-03-02T02:36:37;5.75;;;3.13;;
62338;SDS011;48368;53.406;6.214;2024-03-02T02:39:05;6.32;;;3.60;;
62338;SDS011;48368;53.406;6.214;2024-03-02T02:41:32;5.82;;;2.75;;
62338;SDS011;48368;53.406;6.214;2024-03-02T02:43:58;5.25;;;2.70;;
62338;SDS011;48368;53.406;6.214;2024-03-02T02:46:24;5.47;;;3.22;;
62338;SDS011;48368;53.406;6.214;2024-03-02T02:48:50;4.38;;;2.75;;
62338;SDS011;48368;53.406;6.214;2024-03-02T02:51:19;6.43;;;3.15;;
62338;SDS011;48368;53.406;6.214;2024-03-02T02:53:44;6.55;;;3.50;;
62338;SDS011;48368;53.406;6.214;2024-03-02T02:56:10;5.07;;;2.50;;
62338;SDS011;48368;53.406;6.214;2024-03-02T02:58:36;7.20;;;2.80;;
62338;SDS011;48368;53.406;6.214;2024-03-02T03:01:02;5.80;;;3.22;;
62338;SDS011;48368;53.406;6.214;2024-03-02T03:03:27;5.95;;;3.00;;
62338;SDS011;48368;53.406;6.214;2024-03-02T03:05:55;8.43;;;3.20;;
62338;SDS011;48368;53.406;6.214;2024-03-02T03:08:20;6.15;;;3.13;;
62338;SDS011;48368;53.406;6.214;2024-03-02T03:10:48;6.65;;;3.20;;
62338;SDS011;48368;53.406;6.214;2024-03-02T03:13:14;7.72;;;3.53;;
62338;SDS011;48368;53.406;6.214;2024-03-02T03:15:40;5.68;;;3.10;;
62338;SDS011;48368;53.406;6.214;2024-03-02T03:18:09;6.80;;;3.15;;
62338;SDS011;48368;53.406;6.214;2024-03-02T03:20:35;6.10;;;3.08;;
62338;SDS011;48368;53.406;6.214;2024-03-02T03:23:03;6.63;;;3.22;;
62338;SDS011;48368;53.406;6.214;2024-03-02T03:25:29;4.97;;;2.97;;
62338;SDS011;48368;53.406;6.214;2024-03-02T03:27:55;4.50;;;2.63;;
62338;SDS011;48368;53.406;6.214;2024-03-02T03:30:21;5.93;;;3.10;;
62338;SDS011;48368;53.406;6.214;2024-03-02T03:32:47;4.90;;;3.22;;
62338;SDS011;48368;53.406;6.214;2024-03-02T03:35:15;5.68;;;3.10;;
62338;SDS011;48368;53.406;6.214;2024-03-02T03:37:41;8.52;;;3.60;;
62338;SDS011;48368;53.406;6.214;2024-03-02T03:40:07;8.43;;;3.00;;
62338;SDS011;48368;53.406;6.214;2024-03-02T03:42:39;5.90;;;3.50;;
62338;SDS011;48368;53.406;6.214;2024-03-02T03:45:05;5.50;;;3.30;;
62338;SDS011;48368;53.406;6.214;2024-03-02T03:47:32;5.28;;;3.10;;
62338;SDS011;48368;53.406;6.214;2024-03-02T03:49:58;7.30;;;3.42;;
62338;SDS011;48368;53.406;6.214;2024-03-02T03:52:24;6.07;;;3.88;;
62338;SDS011;48368;53.406;6.214;2024-03-02T03:54:50;5.10;;;3.72;;
62338;SDS011;48368;53.406;6.214;2024-03-02T03:57:16;4.75;;;2.92;;
62338;SDS011;48368;53.406;6.214;2024-03-02T03:59:42;7.95;;;3.20;;
62338;SDS011;48368;53.406;6.214;2024-03-02T04:02:08;5.15;;;3.28;;
62338;SDS011;48368;53.406;6.214;2024-03-02T04:04:34;5.30;;;3.70;;
62338;SDS011;48368;53.406;6.214;2024-03-02T04:07:00;6.15;;;3.47;;
62338;SDS011;48368;53.406;6.214;2024-03-02T04:09:26;5.55;;;3.38;;
62338;SDS011;48368;53.406;6.214;2024-03-02T04:11:58;5.22;;;3.25;;
62338;SDS011;48368;53.406;6.214;2024-03-02T04:14:24;6.03;;;3.50;;
62338;SDS011;48368;53.406;6.214;2024-03-02T04:16:50;6.43;;;3.60;;
62338;SDS011;48368;53.406;6.214;2024-03-02T04:19:16;8.20;;;3.40;;
62338;SDS011;48368;53.406;6.214;2024-03-02T04:21:51;6.97;;;3.80;;
62338;SDS011;48368;53.406;6.214;2024-03-02T04:24:19;6.15;;;3.50;;
62338;SDS011;48368;53.406;6.214;2024-03-02T04:26:45;5.72;;;3.35;;
62338;SDS011;48368;53.406;6.214;2024-03-02T04:29:20;5.35;;;3.30;;
62338;SDS011;48368;53.406;6.214;2024-03-02T04:31:46;6.65;;;3.60;;
62338;SDS011;48368;53.406;6.214;2024-03-02T04:34:12;9.00;;;3.13;;
62338;SDS011;48368;53.406;6.214;2024-03-02T04:36:37;7.20;;;3.45;;
62338;SDS011;48368;53.406;6.214;2024-03-02T04:39:03;6.53;;;3.50;;
62338;SDS011;48368;53.406;6.214;2024-03-02T04:41:29;6.63;;;3.92;;
62338;SDS011;48368;53.406;6.214;2024-03-02T04:43:55;5.63;;;3.72;;
62338;SDS011;48368;53.406;6.214;2024-03-02T04:46:21;6.38;;;3.40;;
62338;SDS011;48368;53.406;6.214;2024-03-02T04:48:47;5.28;;;3.42;;
62338;SDS011;48368;53.406;6.214;2024-03-02T04:51:13;5.40;;;3.25;;
62338;SDS011;48368;53.406;6.214;2024-03-02T04:53:42;8.18;;;3.65;;
62338;SDS011;48368;53.406;6.214;2024-03-02T04:56:08;5.95;;;3.80;;
62338;SDS011;48368;53.406;6.214;2024-03-02T04:58:52;5.88;;;3.55;;
62338;SDS011;48368;53.406;6.214;2024-03-02T05:01:18;6.45;;;4.10;;
62338;SDS011;48368;53.406;6.214;2024-03-02T05:03:45;6.55;;;3.60;;
62338;SDS011;48368;53.406;6.214;2024-03-02T05:06:12;6.03;;;3.83;;
62338;SDS011;48368;53.406;6.214;2024-03-02T05:08:38;5.10;;;3.47;;
62338;SDS011;48368;53.406;6.214;2024-03-02T05:11:03;6.43;;;3.05;;
62338;SDS011;48368;53.406;6.214;2024-03-02T05:13:47;5.82;;;3.47;;
62338;SDS011;48368;53.406;6.214;2024-03-02T05:16:13;7.22;;;3.75;;
62338;SDS011;48368;53.406;6.214;2024-03-02T05:18:39;5.43;;;3.70;;
62338;SDS011;48368;53.406;6.214;2024-03-02T05:21:05;7.57;;;3.28;;
62338;SDS011;48368;53.406;6.214;2024-03-02T05:23:30;6.03;;;3.05;;
62338;SDS011;48368;53.406;6.214;2024-03-02T05:25:56;6.45;;;3.30;;
62338;SDS011;48368;53.406;6.214;2024-03-02T05:28:22;6.63;;;3.53;;
62338;SDS011;48368;53.406;6.214;2024-03-02T05:30:47;4.30;;;3.25;;
62338;SDS011;48368;53.406;6.214;2024-03-02T05:33:13;9.00;;;3.40;;
62338;SDS011;48368;53.406;6.214;2024-03-02T05:35:38;5.13;;;3.10;;
62338;SDS011;48368;53.406;6.214;2024-03-02T05:38:04;6.28;;;3.83;;
62338;SDS011;48368;53.406;6.214;2024-03-02T05:40:30;5.72;;;3.28;;
62338;SDS011;48368;53.406;6.214;2024-03-02T05:42:56;5.85;;;3.35;;
62338;SDS011;48368;53.406;6.214;2024-03-02T05:45:21;5.80;;;3.40;;
62338;SDS011;48368;53.406;6.214;2024-03-02T05:47:47;6.05;;;3.20;;
62338;SDS011;48368;53.406;6.214;2024-03-02T05:50:12;6.15;;;2.80;;
62338;SDS011;48368;53.406;6.214;2024-03-02T05:52:38;5.93;;;3.10;;
62338;SDS011;48368;53.406;6.214;2024-03-02T05:55:04;4.40;;;2.80;;
62338;SDS011;48368;53.406;6.214;2024-03-02T05:57:30;4.95;;;2.75;;
62338;SDS011;48368;53.406;6.214;2024-03-02T06:00:20;4.43;;;2.35;;
62338;SDS011;48368;53.406;6.214;2024-03-02T06:02:47;4.05;;;2.00;;
62338;SDS011;48368;53.406;6.214;2024-03-02T06:05:14;3.90;;;1.95;;
62338;SDS011;48368;53.406;6.214;2024-03-02T06:07:40;2.38;;;1.25;;
62338;SDS011;48368;53.406;6.214;2024-03-02T06:10:06;2.55;;;1.30;;
62338;SDS011;48368;53.406;6.214;2024-03-02T06:12:37;2.15;;;1.00;;
62338;SDS011;48368;53.406;6.214;2024-03-02T06:15:02;2.30;;;0.98;;
62338;SDS011;48368;53.406;6.214;2024-03-02T06:17:29;1.98;;;0.80;;
62338;SDS011;48368;53.406;6.214;2024-03-02T06:19:57;1.35;;;0.70;;
62338;SDS011;48368;53.406;6.214;2024-03-02T06:22:23;1.48;;;0.52;;
62338;SDS011;48368;53.406;6.214;2024-03-02T06:24:50;2.35;;;0.68;;
62338;SDS011;48368;53.406;6.214;2024-03-02T06:27:16;2.25;;;0.65;;
62338;SDS011;48368;53.406;6.214;2024-03-02T06:29:41;2.85;;;0.70;;
62338;SDS011;48368;53.406;6.214;2024-03-02T06:32:07;1.95;;;0.70;;
62338;SDS011;48368;53.406;6.214;2024-03-02T06:34:33;2.10;;;0.63;;
62338;SDS011;48368;53.406;6.214;2024-03-02T06:36:58;1.60;;;0.82;;
62338;SDS011;48368;53.406;6.214;2024-03-02T06:39:24;1.65;;;0.80;;
62338;SDS011;48368;53.406;6.214;2024-03-02T06:41:51;1.42;;;0.75;;
62338;SDS011;48368;53.406;6.214;2024-03-02T06:44:17;1.70;;;0.80;;
62338;SDS011;48368;53.406;6.214;2024-03-02T06:46:42;1.67;;;1.00;;
62338;SDS011;48368;53.406;6.214;2024-03-02T06:49:08;1.13;;;0.80;;
62338;SDS011;48368;53.406;6.214;2024-03-02T06:51:35;2.67;;;0.90;;
62338;SDS011;48368;53.406;6.214;2024-03-02T06:54:01;3.28;;;1.02;;
62338;SDS011;48368;53.406;6.214;2024-03-02T06:56:27;1.58;;;0.85;;
62338;SDS011;48368;53.406;6.214;2024-03-02T06:58:53;2.63;;;1.00;;
62338;SDS011;48368;53.406;6.214;2024-03-02T07:01:18;1.88;;;0.80;;
62338;SDS011;48368;53.406;6.214;2024-03-02T07:03:45;1.80;;;0.90;;
62338;SDS011;48368;53.406;6.214;2024-03-02T07:06:11;2.13;;;0.90;;
62338;SDS011;48368;53.406;6.214;2024-03-02T07:08:37;2.17;;;0.98;;
62338;SDS011;48368;53.406;6.214;2024-03-02T07:11:02;1.83;;;1.00;;
62338;SDS011;48368;53.406;6.214;2024-03-02T07:13:28;2.50;;;1.05;;
62338;SDS011;48368;53.406;6.214;2024-03-02T07:15:54;2.20;;;1.00;;
62338;SDS011;48368;53.406;6.214;2024-03-02T07:18:19;3.55;;;1.30;;
62338;SDS011;48368;53.406;6.214;2024-03-02T07:20:45;2.78;;;0.80;;
62338;SDS011;48368;53.406;6.214;2024-03-02T07:23:11;2.63;;;1.40;;
62338;SDS011;48368;53.406;6.214;2024-03-02T07:25:36;1.50;;;0.80;;
62338;SDS011;48368;53.406;6.214;2024-03-02T07:28:02;1.63;;;0.70;;
62338;SDS011;48368;53.406;6.214;2024-03-02T07:30:29;2.40;;;0.80;;
62338;SDS011;48368;53.406;6.214;2024-03-02T07:32:55;1.00;;;0.50;;
62338;SDS011;48368;53.406;6.214;2024-03-02T07:35:23;2.78;;;0.70;;
62338;SDS011;48368;53.406;6.214;2024-03-02T07:37:52;2.08;;;0.88;;
62338;SDS011;48368;53.406;6.214;2024-03-02T07:40:19;1.50;;;0.68;;
62338;SDS011;48368;53.406;6.214;2024-03-02T07:42:45;2.40;;;0.60;;
62338;SDS011;48368;53.406;6.214;2024-03-02T07:45:10;1.88;;;0.60;;
62338;SDS011;48368;53.406;6.214;2024-03-02T07:47:36;2.08;;;0.60;;
62338;SDS011;48368;53.406;6.214;2024-03-02T07:50:02;1.33;;;0.65;;
62338;SDS011;48368;53.406;6.214;2024-03-02T07:52:31;2.45;;;0.60;;
62338;SDS011;48368;53.406;6.214;2024-03-02T07:54:57;2.25;;;0.88;;
62338;SDS011;48368;53.406;6.214;2024-03-02T07:57:22;3.78;;;0.90;;
62338;SDS011;48368;53.406;6.214;2024-03-02T07:59:48;2.05;;;0.70;;
62338;SDS011;48368;53.406;6.214;2024-03-02T08:02:14;2.47;;;1.20;;
62338;SDS011;48368;53.406;6.214;2024-03-02T08:04:40;1.48;;;0.60;;
62338;SDS011;48368;53.406;6.214;2024-03-02T08:07:09;1.85;;;0.82;;
62338;SDS011;48368;53.406;6.214;2024-03-02T08:09:35;2.45;;;0.80;;
62338;SDS011;48368;53.406;6.214;2024-03-02T08:12:01;2.33;;;1.02;;
62338;SDS011;48368;53.406;6.214;2024-03-02T08:14:26;1.17;;;0.60;;
62338;SDS011;48368;53.406;6.214;2024-03-02T08:16:52;1.45;;;0.85;;
62338;SDS011;48368;53.406;6.214;2024-03-02T08:19:18;1.05;;;0.50;;
62338;SDS011;48368;53.406;6.214;2024-03-02T08:21:46;1.95;;;0.52;;
62338;SDS011;48368;53.406;6.214;2024-03-02T08:24:15;2.00;;;0.77;;
62338;SDS011;48368;53.406;6.214;2024-03-02T08:26:41;1.60;;;0.60;;
62338;SDS011;48368;53.406;6.214;2024-03-02T08:29:07;2.80;;;0.80;;
62338;SDS011;48368;53.406;6.214;2024-03-02T08:31:33;2.53;;;0.70;;
62338;SDS011;48368;53.406;6.214;2024-03-02T08:33:59;2.28;;;0.70;;
62338;SDS011;48368;53.406;6.214;2024-03-02T08:36:25;2.63;;;1.13;;
62338;SDS011;48368;53.406;6.214;2024-03-02T08:38:51;2.00;;;0.70;;
62338;SDS011;48368;53.406;6.214;2024-03-02T08:41:17;2.17;;;0.90;;
62338;SDS011;48368;53.406;6.214;2024-03-02T08:43:43;1.95;;;0.75;;
62338;SDS011;48368;53.406;6.214;2024-03-02T08:46:09;2.83;;;0.85;;
62338;SDS011;48368;53.406;6.214;2024-03-02T08:48:35;2.08;;;0.70;;
62338;SDS011;48368;53.406;6.214;2024-03-02T08:51:01;3.25;;;1.00;;
62338;SDS011;48368;53.406;6.214;2024-03-02T08:53:29;2.15;;;0.63;;
62338;SDS011;48368;53.406;6.214;2024-03-02T08:55:55;3.13;;;0.95;;
62338;SDS011;48368;53.406;6.214;2024-03-02T08:58:23;2.55;;;1.00;;
62338;SDS011;48368;53.406;6.214;2024-03-02T09:04:23;3.15;;;1.20;;
62338;SDS011;48368;53.406;6.214;2024-03-02T09:06:49;3.10;;;1.00;;
62338;SDS011;48368;53.406;6.214;2024-03-02T09:09:15;2.00;;;0.90;;
62338;SDS011;48368;53.406;6.214;2024-03-02T09:11:41;3.63;;;1.10;;
62338;SDS011;48368;53.406;6.214;2024-03-02T09:14:06;3.13;;;1.23;;
62338;SDS011;48368;53.406;6.214;2024-03-02T09:16:32;3.72;;;1.23;;
62338;SDS011;48368;53.406;6.214;2024-03-02T09:18:58;2.80;;;0.98;;
62338;SDS011;48368;53.406;6.214;2024-03-02T09:21:23;2.47;;;0.95;;
62338;SDS011;48368;53.406;6.214;2024-03-02T09:23:50;1.75;;;0.80;;
62338;SDS011;48368;53.406;6.214;2024-03-02T09:26:16;2.42;;;0.70;;
62338;SDS011;48368;53.406;6.214;2024-03-02T09:28:45;2.47;;;0.85;;
62338;SDS011;48368;53.406;6.214;2024-03-02T09:31:10;1.55;;;0.88;;
62338;SDS011;48368;53.406;6.214;2024-03-02T09:33:37;3.70;;;0.70;;
62338;SDS011;48368;53.406;6.214;2024-03-02T09:36:04;5.25;;;1.02;;
62338;SDS011;48368;53.406;6.214;2024-03-02T09:38:32;2.90;;;0.80;;
62338;SDS011;48368;53.406;6.214;2024-03-02T09:40:59;1.95;;;0.73;;
62338;SDS011;48368;53.406;6.214;2024-03-02T09:43:26;2.03;;;0.80;;
62338;SDS011;48368;53.406;6.214;2024-03-02T09:45:51;2.20;;;1.00;;
62338;SDS011;48368;53.406;6.214;2024-03-02T09:48:18;5.15;;;0.90;;
62338;SDS011;48368;53.406;6.214;2024-03-02T09:50:45;4.28;;;0.93;;
62338;SDS011;48368;53.406;6.214;2024-03-02T09:53:11;3.42;;;0.80;;
62338;SDS011;48368;53.406;6.214;2024-03-02T09:55:38;1.80;;;0.70;;
62338;SDS011;48368;53.406;6.214;2024-03-02T09:58:08;1.73;;;0.60;;
62338;SDS011;48368;53.406;6.214;2024-03-02T10:00:34;3.70;;;1.70;;
62338;SDS011;48368;53.406;6.214;2024-03-02T10:03:00;3.58;;;0.70;;
62338;SDS011;48368;53.406;6.214;2024-03-02T10:05:27;2.55;;;0.50;;
62338;SDS011;48368;53.406;6.214;2024-03-02T10:08:00;2.00;;;0.50;;
62338;SDS011;48368;53.406;6.214;2024-03-02T10:10:34;0.85;;;0.35;;
62338;SDS011;48368;53.406;6.214;2024-03-02T10:13:07;3.05;;;0.90;;
62338;SDS011;48368;53.406;6.214;2024-03-02T10:15:34;2.35;;;0.60;;
62338;SDS011;48368;53.406;6.214;2024-03-02T10:18:00;1.23;;;0.50;;
62338;SDS011;48368;53.406;6.214;2024-03-02T10:20:26;1.60;;;0.60;;
62338;SDS011;48368;53.406;6.214;2024-03-02T10:23:18;5.13;;;1.00;;
62338;SDS011;48368;53.406;6.214;2024-03-02T10:25:43;2.70;;;0.65;;
62338;SDS011;48368;53.406;6.214;2024-03-02T10:28:10;1.67;;;0.93;;
62338;SDS011;48368;53.406;6.214;2024-03-02T10:30:35;6.32;;;0.90;;
62338;SDS011;48368;53.406;6.214;2024-03-02T10:33:02;3.03;;;0.85;;
62338;SDS011;48368;53.406;6.214;2024-03-02T10:35:28;1.98;;;0.82;;
62338;SDS011;48368;53.406;6.214;2024-03-02T10:37:58;2.15;;;0.60;;
62338;SDS011;48368;53.406;6.214;2024-03-02T10:40:26;2.75;;;0.73;;
62338;SDS011;48368;53.406;6.214;2024-03-02T10:42:55;3.67;;;1.00;;
62338;SDS011;48368;53.406;6.214;2024-03-02T10:45:21;1.98;;;0.60;;
62338;SDS011;48368;53.406;6.214;2024-03-02T10:47:48;3.90;;;0.80;;
62338;SDS011;48368;53.406;6.214;2024-03-02T10:50:15;3.55;;;0.82;;
62338;SDS011;48368;53.406;6.214;2024-03-02T10:52:40;2.55;;;0.70;;
62338;SDS011;48368;53.406;6.214;2024-03-02T10:55:07;2.25;;;0.50;;
62338;SDS011;48368;53.406;6.214;2024-03-02T10:57:50;2.58;;;0.80;;
62338;SDS011;48368;53.406;6.214;2024-03-02T11:00:18;4.32;;;1.00;;
62338;SDS011;48368;53.406;6.214;2024-03-02T11:02:50;2.90;;;0.73;;
62338;SDS011;48368;53.406;6.214;2024-03-02T11:05:21;3.33;;;0.73;;
62338;SDS011;48368;53.406;6.214;2024-03-02T11:07:51;2.58;;;0.90;;
62338;SDS011;48368;53.406;6.214;2024-03-02T11:10:21;2.30;;;0.70;;
62338;SDS011;48368;53.406;6.214;2024-03-02T11:12:50;1.08;;;0.47;;
62338;SDS011;48368;53.406;6.214;2024-03-02T11:15:22;2.33;;;0.57;;
62338;SDS011;48368;53.406;6.214;2024-03-02T11:17:54;2.83;;;0.75;;
62338;SDS011;48368;53.406;6.214;2024-03-02T11:20:20;1.30;;;0.52;;
62338;SDS011;48368;53.406;6.214;2024-03-02T11:22:47;2.30;;;0.73;;
62338;SDS011;48368;53.406;6.214;2024-03-02T11:25:23;2.38;;;0.80;;
62338;SDS011;48368;53.406;6.214;2024-03-02T11:32:59;5.20;;;0.57;;
62338;SDS011;48368;53.406;6.214;2024-03-02T11:35:26;1.63;;;0.50;;
62338;SDS011;48368;53.406;6.214;2024-03-02T11:38:06;4.28;;;0.70;;
62338;SDS011;48368;53.406;6.214;2024-03-02T11:40:32;4.88;;;0.68;;
62338;SDS011;48368;53.406;6.214;2024-03-02T11:43:00;3.17;;;0.77;;
62338;SDS011;48368;53.406;6.214;2024-03-02T11:45:33;2.95;;;0.65;;
62338;SDS011;48368;53.406;6.214;2024-03-02T11:48:01;1.48;;;0.60;;
62338;SDS011;48368;53.406;6.214;2024-03-02T11:50:40;2.72;;;0.65;;
62338;SDS011;48368;53.406;6.214;2024-03-02T11:53:08;3.25;;;0.50;;
62338;SDS011;48368;53.406;6.214;2024-03-02T11:55:38;1.30;;;0.60;;
62338;SDS011;48368;53.406;6.214;2024-03-02T11:58:15;0.82;;;0.40;;
62338;SDS011;48368;53.406;6.214;2024-03-02T12:00:46;2.80;;;0.75;;
62338;SDS011;48368;53.406;6.214;2024-03-02T12:03:14;1.45;;;0.50;;
62338;SDS011;48368;53.406;6.214;2024-03-02T12:05:49;4.53;;;0.77;;
62338;SDS011;48368;53.406;6.214;2024-03-02T12:08:35;1.83;;;0.63;;
62338;SDS011;48368;53.406;6.214;2024-03-02T12:11:04;2.15;;;0.60;;
62338;SDS011;48368;53.406;6.214;2024-03-02T12:16:56;2.50;;;0.63;;
62338;SDS011;48368;53.406;6.214;2024-03-02T12:19:42;3.35;;;0.52;;
62338;SDS011;48368;53.406;6.214;2024-03-02T12:36:41;4.55;;;0.80;;
62338;SDS011;48368;53.406;6.214;2024-03-02T12:39:36;1.65;;;0.40;;
62338;SDS011;48368;53.406;6.214;2024-03-02T12:42:48;1.75;;;0.40;;
62338;SDS011;48368;53.406;6.214;2024-03-02T12:45:38;12.35;;;2.45;;
62338;SDS011;48368;53.406;6.214;2024-03-02T12:48:36;19.08;;;2.00;;
62338;SDS011;48368;53.406;6.214;2024-03-02T12:51:20;5.15;;;0.75;;
62338;SDS011;48368;53.406;6.214;2024-03-02T12:54:07;1.42;;;0.60;;
62338;SDS011;48368;53.406;6.214;2024-03-02T12:56:38;3.28;;;0.88;;
62338;SDS011;48368;53.406;6.214;2024-03-02T12:59:17;1.95;;;0.85;;
62338;SDS011;48368;53.406;6.214;2024-03-02T13:01:51;3.10;;;0.80;;
62338;SDS011;48368;53.406;6.214;2024-03-02T13:04:17;4.55;;;0.70;;
62338;SDS011;48368;53.406;6.214;2024-03-02T13:06:51;3.35;;;1.00;;
62338;SDS011;48368;53.406;6.214;2024-03-02T13:09:17;2.95;;;0.90;;
62338;SDS011;48368;53.406;6.214;2024-03-02T13:11:43;2.85;;;0.60;;
62338;SDS011;48368;53.406;6.214;2024-03-02T13:14:10;2.83;;;0.80;;
62338;SDS011;48368;53.406;6.214;2024-03-02T13:16:39;1.80;;;0.70;;
62338;SDS011;48368;53.406;6.214;2024-03-02T13:19:09;3.70;;;0.65;;
62338;SDS011;48368;53.406;6.214;2024-03-02T13:21:37;3.73;;;0.70;;
62338;SDS011;48368;53.406;6.214;2024-03-02T13:24:04;8.10;;;3.15;;
62338;SDS011;48368;53.406;6.214;2024-03-02T13:26:30;3.00;;;0.70;;
62338;SDS011;48368;53.406;6.214;2024-03-02T13:28:56;2.60;;;0.70;;
62338;SDS011;48368;53.406;6.214;2024-03-02T13:31:22;3.67;;;1.05;;
62338;SDS011;48368;53.406;6.214;2024-03-02T13:33:48;4.50;;;1.13;;
62338;SDS011;48368;53.406;6.214;2024-03-02T13:36:13;2.45;;;0.70;;
62338;SDS011;48368;53.406;6.214;2024-03-02T13:38:39;3.75;;;0.70;;
62338;SDS011;48368;53.406;6.214;2024-03-02T13:41:05;4.15;;;0.90;;
62338;SDS011;48368;53.406;6.214;2024-03-02T13:43:30;3.50;;;0.77;;
62338;SDS011;48368;53.406;6.214;2024-03-02T13:45:57;2.88;;;1.27;;
62338;SDS011;48368;53.406;6.214;2024-03-02T13:48:23;1.45;;;0.52;;
62338;SDS011;48368;53.406;6.214;2024-03-02T13:50:51;2.67;;;0.75;;
62338;SDS011;48368;53.406;6.214;2024-03-02T13:53:18;3.28;;;0.98;;
62338;SDS011;48368;53.406;6.214;2024-03-02T13:55:44;6.95;;;2.55;;
62338;SDS011;48368;53.406;6.214;2024-03-02T13:58:10;4.93;;;1.17;;
62338;SDS011;48368;53.406;6.214;2024-03-02T14:00:37;2.22;;;0.85;;
62338;SDS011;48368;53.406;6.214;2024-03-02T14:03:05;2.90;;;0.93;;
62338;SDS011;48368;53.406;6.214;2024-03-02T14:05:32;3.90;;;1.00;;
62338;SDS011;48368;53.406;6.214;2024-03-02T14:07:57;2.83;;;0.90;;
62338;SDS011;48368;53.406;6.214;2024-03-02T14:10:25;4.15;;;1.00;;
62338;SDS011;48368;53.406;6.214;2024-03-02T14:12:51;6.57;;;2.00;;
62338;SDS011;48368;53.406;6.214;2024-03-02T14:15:16;6.47;;;2.00;;
62338;SDS011;48368;53.406;6.214;2024-03-02T14:17:42;4.25;;;1.60;;
62338;SDS011;48368;53.406;6.214;2024-03-02T14:20:08;2.75;;;1.33;;
62338;SDS011;48368;53.406;6.214;2024-03-02T14:22:36;4.90;;;1.98;;
62338;SDS011;48368;53.406;6.214;2024-03-02T14:25:02;2.75;;;1.67;;
62338;SDS011;48368;53.406;6.214;2024-03-02T14:27:29;4.25;;;2.40;;
62338;SDS011;48368;53.406;6.214;2024-03-02T14:29:54;6.70;;;2.70;;
62338;SDS011;48368;53.406;6.214;2024-03-02T14:32:20;5.05;;;3.28;;
62338;SDS011;48368;53.406;6.214;2024-03-02T14:34:46;5.18;;;3.03;;
62338;SDS011;48368;53.406;6.214;2024-03-02T14:37:13;6.72;;;4.15;;
62338;SDS011;48368;53.406;6.214;2024-03-02T14:39:40;5.65;;;3.97;;
62338;SDS011;48368;53.406;6.214;2024-03-02T14:42:06;8.35;;;5.05;;
62338;SDS011;48368;53.406;6.214;2024-03-02T14:44:32;6.13;;;5.13;;
62338;SDS011;48368;53.406;6.214;2024-03-02T14:46:59;8.35;;;6.07;;
62338;SDS011;48368;53.406;6.214;2024-03-02T14:49:32;6.90;;;6.15;;
62338;SDS011;48368;53.406;6.214;2024-03-02T14:52:00;12.45;;;6.47;;
62338;SDS011;48368;53.406;6.214;2024-03-02T14:54:26;13.75;;;9.23;;
62338;SDS011;48368;53.406;6.214;2024-03-02T14:56:52;7.25;;;6.35;;
62338;SDS011;48368;53.406;6.214;2024-03-02T14:59:17;7.03;;;6.15;;
62338;SDS011;48368;53.406;6.214;2024-03-02T15:01:43;7.30;;;6.05;;
62338;SDS011;48368;53.406;6.214;2024-03-02T15:04:09;7.63;;;6.82;;
62338;SDS011;48368;53.406;6.214;2024-03-02T15:06:35;8.23;;;6.50;;
62338;SDS011;48368;53.406;6.214;2024-03-02T15:09:00;7.47;;;6.13;;
62338;SDS011;48368;53.406;6.214;2024-03-02T15:11:26;8.38;;;6.05;;
62338;SDS011;48368;53.406;6.214;2024-03-02T15:13:52;7.30;;;6.22;;
62338;SDS011;48368;53.406;6.214;2024-03-02T15:16:18;6.45;;;5.43;;
62338;SDS011;48368;53.406;6.214;2024-03-02T15:18:44;8.13;;;5.25;;
62338;SDS011;48368;53.406;6.214;2024-03-02T15:21:10;7.28;;;5.25;;
62338;SDS011;48368;53.406;6.214;2024-03-02T15:23:42;7.53;;;5.43;;
62338;SDS011;48368;53.406;6.214;2024-03-02T15:26:08;7.53;;;5.80;;